Time;durP1;ratioP1;P1;durP2;ratioP2;P2;SDS_P1;SDS_P2;PMS_P1;PMS_P2;Temp;Humidity;BMP_temperature;BMP_pressure;BME280_temperature;BME280_humidity;BME280_pressure;Samples;Min_cycle;Max_cycle;Signal;HPM_P1;HPM_P2
2022/07/11 00:02:19;;;;;;;3.95;1.20;;;15.60;99.90;;;;;;4993911;28;20140;-94
2022/07/11 00:04:46;;;;;;;4.93;1.55;;;15.60;99.90;;;;;;5010592;28;20562;-95
2022/07/11 00:07:12;;;;;;;7.95;1.60;;;15.70;99.90;;;;;;5011275;28;20054;-95
2022/07/11 00:09:38;;;;;;;9.43;1.80;;;15.60;99.90;;;;;;5010275;28;20045;-95
2022/07/11 00:12:04;;;;;;;2.95;1.60;;;15.60;99.90;;;;;;5010169;28;20060;-95
2022/07/11 00:14:30;;;;;;;7.47;1.90;;;15.60;99.90;;;;;;5009475;28;20445;-95
2022/07/11 00:16:56;;;;;;;4.03;1.50;;;15.60;99.90;;;;;;5010265;28;20046;-94
2022/07/11 00:19:22;;;;;;;5.90;1.75;;;15.60;99.90;;;;;;5009800;28;20050;-94
2022/07/11 00:21:49;;;;;;;5.80;2.08;;;15.60;99.90;;;;;;5009645;28;20045;-95
2022/07/11 00:24:17;;;;;;;9.45;2.05;;;15.60;99.90;;;;;;5010413;28;20041;-95
2022/07/11 00:26:43;;;;;;;5.95;2.00;;;15.60;99.90;;;;;;5009300;28;20086;-95
2022/07/11 00:29:09;;;;;;;10.35;2.00;;;15.50;99.90;;;;;;5010136;28;20046;-94
2022/07/11 00:31:35;;;;;;;5.30;2.50;;;15.50;99.90;;;;;;5012841;28;20050;-94
2022/07/11 00:34:01;;;;;;;7.47;2.15;;;15.50;99.90;;;;;;5013064;28;20087;-94
2022/07/11 00:36:27;;;;;;;10.75;3.00;;;15.40;99.90;;;;;;5012623;28;20473;-94
2022/07/11 00:38:53;;;;;;;8.63;2.67;;;15.40;99.90;;;;;;5013793;28;20044;-94
2022/07/11 00:41:19;;;;;;;8.70;2.95;;;15.40;99.90;;;;;;5012814;28;20103;-94
2022/07/11 00:43:53;;;;;;;12.45;3.15;;;15.40;99.90;;;;;;5013268;28;20044;-94
2022/07/11 00:46:18;;;;;;;10.45;2.88;;;15.40;99.90;;;;;;5013160;28;20111;-94
2022/07/11 00:48:44;;;;;;;9.23;2.63;;;15.40;99.90;;;;;;5012257;28;20128;-94
2022/07/11 00:51:10;;;;;;;7.80;2.88;;;15.40;99.90;;;;;;5012856;28;20041;-95
2022/07/11 00:53:35;;;;;;;9.40;2.97;;;15.40;99.90;;;;;;5014646;28;20048;-94
2022/07/11 00:56:01;;;;;;;7.82;2.63;;;15.40;99.90;;;;;;5012906;28;20038;-94
2022/07/11 00:58:27;;;;;;;8.18;2.45;;;15.40;99.90;;;;;;5013121;28;20042;-94
2022/07/11 01:00:53;;;;;;;8.05;2.47;;;15.40;99.90;;;;;;5012814;28;20038;-94
2022/07/11 01:03:19;;;;;;;6.20;2.28;;;15.40;99.90;;;;;;5013273;28;20505;-94
2022/07/11 01:05:45;;;;;;;4.47;2.45;;;15.40;99.90;;;;;;4998380;28;20045;-95
2022/07/11 01:08:11;;;;;;;8.88;2.40;;;15.40;99.90;;;;;;5013665;28;20394;-94
2022/07/11 01:10:36;;;;;;;9.05;2.17;;;15.40;99.90;;;;;;5012685;28;20486;-94
2022/07/11 01:13:02;;;;;;;8.73;2.00;;;15.40;99.90;;;;;;5013271;28;20057;-94
2022/07/11 01:15:28;;;;;;;6.15;2.30;;;15.40;99.90;;;;;;5013119;28;20052;-95
2022/07/11 01:17:54;;;;;;;9.32;2.35;;;15.40;99.90;;;;;;5012755;28;20050;-94
2022/07/11 01:20:20;;;;;;;4.18;2.35;;;15.40;99.90;;;;;;5013012;28;20112;-94
2022/07/11 01:22:51;;;;;;;6.80;2.60;;;15.40;99.90;;;;;;5013077;28;20548;-94
2022/07/11 01:25:30;;;;;;;8.05;2.50;;;15.40;99.90;;;;;;5012390;28;20034;-95
2022/07/11 01:27:59;;;;;;;5.15;2.13;;;15.40;99.90;;;;;;5013000;28;20049;-95
2022/07/11 01:30:26;;;;;;;7.13;2.20;;;15.40;99.90;;;;;;5012468;28;20045;-94
2022/07/11 01:32:53;;;;;;;3.92;2.33;;;15.40;99.90;;;;;;5012987;28;20081;-94
2022/07/11 01:35:19;;;;;;;5.45;1.77;;;15.40;99.90;;;;;;5013043;28;20056;-95
2022/07/11 01:37:45;;;;;;;5.22;1.88;;;15.30;99.90;;;;;;5012567;28;20041;-93
2022/07/11 01:40:11;;;;;;;4.60;2.13;;;15.30;99.90;;;;;;5012903;28;20496;-94
2022/07/11 01:42:36;;;;;;;6.50;2.40;;;15.30;99.90;;;;;;5012996;28;20128;-94
2022/07/11 01:45:03;;;;;;;7.95;2.40;;;15.40;99.90;;;;;;5013465;28;20058;-94
2022/07/11 01:47:29;;;;;;;5.88;2.58;;;15.30;99.90;;;;;;5012732;28;20053;-94
2022/07/11 01:49:55;;;;;;;5.53;2.38;;;15.30;99.90;;;;;;5012179;28;20184;-94
2022/07/11 01:52:21;;;;;;;9.55;2.35;;;15.30;99.90;;;;;;5013425;28;20053;-94
2022/07/11 01:54:47;;;;;;;4.78;2.13;;;15.30;99.90;;;;;;5017485;28;20076;-94
2022/07/11 01:57:14;;;;;;;4.70;1.95;;;15.30;99.90;;;;;;5015196;28;20052;-94
2022/07/11 01:59:39;;;;;;;3.97;2.10;;;15.40;99.90;;;;;;5016404;28;20969;-95
2022/07/11 02:02:06;;;;;;;6.45;2.70;;;15.40;99.90;;;;;;5015988;28;20132;-94
2022/07/11 02:04:31;;;;;;;6.07;2.42;;;15.40;99.90;;;;;;5015592;28;20531;-94
2022/07/11 02:06:57;;;;;;;5.97;2.50;;;15.40;99.90;;;;;;5015330;28;20057;-95
2022/07/11 02:09:23;;;;;;;8.82;2.50;;;15.40;99.90;;;;;;5015054;28;20105;-93
2022/07/11 02:11:49;;;;;;;9.68;2.30;;;15.40;99.90;;;;;;5015473;28;20104;-94
2022/07/11 02:14:15;;;;;;;8.30;2.88;;;15.40;99.90;;;;;;5015875;28;20072;-93
2022/07/11 02:16:40;;;;;;;7.80;2.78;;;15.30;99.90;;;;;;5015494;28;20132;-94
2022/07/11 02:19:07;;;;;;;10.75;2.40;;;15.40;99.90;;;;;;5015380;28;20048;-94
2022/07/11 02:21:33;;;;;;;7.50;2.05;;;15.40;99.90;;;;;;5014789;28;20045;-93
2022/07/11 02:23:59;;;;;;;6.13;2.40;;;15.40;99.90;;;;;;5015503;28;20076;-94
2022/07/11 02:26:25;;;;;;;8.77;2.40;;;15.40;99.90;;;;;;5014247;28;20052;-93
2022/07/11 02:28:51;;;;;;;5.90;2.58;;;15.30;99.90;;;;;;5015280;28;20038;-93
2022/07/11 02:31:16;;;;;;;5.30;2.08;;;15.30;99.90;;;;;;5014758;28;20136;-94
2022/07/11 02:33:42;;;;;;;5.32;2.20;;;15.30;99.90;;;;;;5014777;28;20417;-94
2022/07/11 02:36:09;;;;;;;5.13;1.90;;;15.30;99.90;;;;;;5014409;28;20049;-94
2022/07/11 02:38:35;;;;;;;4.35;2.25;;;15.30;99.90;;;;;;5014827;28;20029;-95
2022/07/11 02:41:01;;;;;;;6.25;2.75;;;15.30;99.90;;;;;;5014549;28;20045;-93
2022/07/11 02:43:27;;;;;;;6.40;2.63;;;15.40;99.90;;;;;;5014251;28;20096;-94
2022/07/11 02:45:54;;;;;;;4.55;2.30;;;15.40;99.90;;;;;;5014946;28;20553;-95
2022/07/11 02:48:20;;;;;;;10.77;2.08;;;15.40;99.90;;;;;;5015722;28;20045;-94
2022/07/11 02:50:46;;;;;;;5.30;2.13;;;15.40;99.90;;;;;;5014475;28;20137;-93
2022/07/11 02:53:11;;;;;;;5.85;2.15;;;15.30;99.90;;;;;;5015690;28;20144;-94
2022/07/11 02:55:37;;;;;;;4.97;1.90;;;15.30;99.90;;;;;;5014527;28;20529;-95
2022/07/11 02:58:03;;;;;;;3.78;1.58;;;15.40;99.90;;;;;;5015484;28;20076;-94
2022/07/11 03:00:29;;;;;;;3.85;1.75;;;15.30;99.90;;;;;;5015222;28;20087;-94
2022/07/11 03:02:55;;;;;;;6.18;1.90;;;15.30;99.90;;;;;;5014254;28;20099;-95
2022/07/11 03:05:20;;;;;;;8.13;2.05;;;15.30;99.90;;;;;;5013804;28;20473;-95
2022/07/11 03:07:46;;;;;;;8.10;1.65;;;15.30;99.90;;;;;;5014583;28;20128;-95
2022/07/11 03:10:12;;;;;;;4.35;1.88;;;15.30;99.90;;;;;;5015027;28;20083;-94
2022/07/11 03:12:38;;;;;;;4.57;1.67;;;15.30;99.90;;;;;;5014122;28;20050;-95
2022/07/11 03:15:05;;;;;;;6.38;1.95;;;15.30;99.90;;;;;;5013938;28;20045;-94
2022/07/11 03:17:31;;;;;;;7.03;2.17;;;15.30;99.90;;;;;;5013967;28;20128;-94
2022/07/11 03:19:56;;;;;;;6.03;2.03;;;15.20;99.90;;;;;;5015270;28;20124;-94
2022/07/11 03:22:23;;;;;;;5.22;1.70;;;15.30;99.90;;;;;;5013847;28;20478;-95
2022/07/11 03:24:50;;;;;;;5.50;1.90;;;15.30;99.90;;;;;;5013982;28;20041;-94
2022/07/11 03:27:16;;;;;;;3.95;1.83;;;15.30;99.90;;;;;;5013393;28;20427;-95
2022/07/11 03:29:42;;;;;;;6.15;1.77;;;15.30;99.90;;;;;;5013588;28;20053;-94
2022/07/11 03:32:09;;;;;;;3.90;1.73;;;15.30;99.90;;;;;;5013647;28;20049;-94
2022/07/11 03:34:35;;;;;;;4.07;1.75;;;15.20;99.90;;;;;;5013591;28;20481;-95
2022/07/11 03:37:01;;;;;;;5.07;1.52;;;15.20;99.90;;;;;;5013492;28;20518;-95
2022/07/11 03:39:28;;;;;;;5.40;1.55;;;15.20;99.90;;;;;;5014249;28;20049;-95
2022/07/11 03:41:54;;;;;;;4.95;1.60;;;15.20;99.90;;;;;;5013976;28;20041;-94
2022/07/11 03:44:20;;;;;;;3.85;1.60;;;15.20;99.90;;;;;;5014447;28;20067;-94
2022/07/11 03:46:46;;;;;;;4.28;1.45;;;15.20;99.90;;;;;;5013764;28;20481;-94
2022/07/11 03:49:12;;;;;;;6.03;1.30;;;15.20;99.90;;;;;;5014675;28;20116;-94
2022/07/11 03:51:38;;;;;;;3.72;1.15;;;15.20;99.90;;;;;;5012166;28;20049;-94
2022/07/11 03:54:04;;;;;;;5.68;1.10;;;15.30;99.90;;;;;;5005636;28;20045;-94
2022/07/11 03:56:30;;;;;;;2.70;1.02;;;15.30;99.90;;;;;;5014105;28;20077;-94
2022/07/11 03:58:56;;;;;;;5.75;1.20;;;15.30;99.90;;;;;;5010547;28;20087;-94
2022/07/11 04:01:22;;;;;;;2.78;0.95;;;15.20;99.90;;;;;;5009529;28;20050;-94
2022/07/11 04:03:48;;;;;;;6.75;1.40;;;15.30;99.90;;;;;;5012504;28;20038;-94
2022/07/11 04:06:14;;;;;;;10.38;1.40;;;15.30;99.90;;;;;;5009802;28;20053;-94
2022/07/11 04:08:40;;;;;;;3.15;0.88;;;15.10;99.90;;;;;;5010450;28;20046;-94
2022/07/11 04:11:10;;;;;;;7.20;1.33;;;15.20;99.90;;;;;;5010991;28;20058;-94
2022/07/11 04:13:35;;;;;;;3.80;1.10;;;15.30;99.90;;;;;;5009754;28;20053;-94
2022/07/11 04:16:01;;;;;;;3.67;1.10;;;15.20;99.90;;;;;;5010620;28;20046;-94
2022/07/11 04:18:27;;;;;;;6.43;1.33;;;15.20;99.90;;;;;;5009386;28;20482;-94
2022/07/11 04:20:53;;;;;;;3.05;1.05;;;15.40;99.90;;;;;;5009250;28;20057;-94
2022/07/11 04:23:19;;;;;;;4.97;1.30;;;15.30;99.90;;;;;;5012530;28;20057;-95
2022/07/11 04:25:45;;;;;;;2.85;0.80;;;15.30;99.90;;;;;;5009837;28;20041;-95
2022/07/11 04:28:10;;;;;;;5.90;1.05;;;15.30;99.90;;;;;;5009674;28;20133;-95
2022/07/11 04:30:36;;;;;;;3.78;0.80;;;15.30;99.90;;;;;;5011176;28;20060;-95
2022/07/11 04:33:02;;;;;;;2.17;0.65;;;15.30;99.90;;;;;;5009771;28;20140;-95
2022/07/11 04:35:28;;;;;;;3.25;0.75;;;15.30;99.90;;;;;;5010948;28;20041;-94
2022/07/11 04:37:57;;;;;;;3.38;0.73;;;15.30;99.90;;;;;;5011682;28;20046;-96
2022/07/11 04:40:23;;;;;;;2.90;0.90;;;15.50;99.90;;;;;;5014084;28;20050;-96
2022/07/11 04:42:52;;;;;;;1.88;0.60;;;15.30;99.90;;;;;;5015141;28;20054;-94
2022/07/11 04:45:19;;;;;;;3.10;0.65;;;15.40;99.90;;;;;;5015466;28;20100;-95
2022/07/11 04:47:44;;;;;;;1.98;0.57;;;15.40;99.90;;;;;;5013134;28;20049;-96
2022/07/11 04:50:10;;;;;;;2.50;0.63;;;15.40;99.90;;;;;;5014495;28;20104;-95
2022/07/11 04:52:37;;;;;;;2.05;0.60;;;15.40;99.90;;;;;;5014643;28;20049;-96
2022/07/11 04:55:04;;;;;;;2.35;0.68;;;15.50;99.90;;;;;;5012582;28;20494;-95
2022/07/11 04:57:29;;;;;;;3.80;0.82;;;15.50;99.90;;;;;;5015460;28;20054;-95
2022/07/11 04:59:55;;;;;;;2.85;0.57;;;15.50;99.90;;;;;;5031397;28;20046;-95
2022/07/11 05:02:21;;;;;;;3.08;0.70;;;15.50;99.90;;;;;;5014038;28;20038;-95
2022/07/11 05:04:47;;;;;;;2.33;0.50;;;15.60;99.90;;;;;;5013517;28;20522;-94
2022/07/11 05:07:13;;;;;;;3.95;0.77;;;15.70;99.90;;;;;;5013954;28;20056;-95
2022/07/11 05:09:39;;;;;;;2.78;0.50;;;15.60;99.90;;;;;;5013461;28;20409;-95
2022/07/11 05:12:08;;;;;;;3.72;0.70;;;15.70;99.90;;;;;;5012756;28;20076;-94
2022/07/11 05:14:40;;;;;;;3.47;0.57;;;15.80;99.90;;;;;;4996619;28;20042;-95
2022/07/11 05:17:08;;;;;;;1.80;0.50;;;15.80;99.90;;;;;;5014568;28;20092;-95
2022/07/11 05:19:34;;;;;;;4.95;0.63;;;16.00;99.90;;;;;;5012971;28;20050;-94
2022/07/11 05:22:35;;;;;;;2.20;0.40;;;15.90;99.90;;;;;;5012488;28;20054;-95
2022/07/11 05:25:03;;;;;;;5.68;0.50;;;15.90;99.90;;;;;;4986746;28;20057;-95
2022/07/11 05:27:29;;;;;;;5.38;0.75;;;16.00;99.90;;;;;;5013440;28;20038;-95
2022/07/11 05:29:58;;;;;;;1.08;0.40;;;16.00;99.90;;;;;;5013027;28;20381;-94
2022/07/11 05:32:27;;;;;;;3.38;0.55;;;16.10;99.90;;;;;;5013429;28;20065;-95
2022/07/11 05:35:04;;;;;;;0.90;0.30;;;16.10;99.90;;;;;;5012575;28;20108;-95
2022/07/11 05:37:30;;;;;;;3.65;0.55;;;16.10;99.90;;;;;;5012628;28;20046;-95
2022/07/11 05:39:56;;;;;;;2.50;0.40;;;16.10;99.90;;;;;;5015612;28;20148;-95
2022/07/11 05:42:29;;;;;;;3.60;0.38;;;16.20;99.90;;;;;;5012292;28;20101;-94
2022/07/11 05:45:08;;;;;;;3.80;0.50;;;16.00;99.90;;;;;;5027751;28;20125;-95
2022/07/11 05:47:34;;;;;;;3.97;0.40;;;16.20;99.90;;;;;;5012778;28;20042;-95
2022/07/11 05:50:04;;;;;;;3.05;0.35;;;16.10;99.90;;;;;;5011754;28;20395;-96
2022/07/11 05:52:30;;;;;;;1.98;0.30;;;16.10;99.90;;;;;;5012646;28;20129;-94
2022/07/11 05:55:02;;;;;;;2.15;0.28;;;16.00;99.90;;;;;;5012594;28;20104;-93
2022/07/11 05:57:30;;;;;;;2.20;0.20;;;16.10;99.90;;;;;;5012962;28;20034;-95
2022/07/11 05:59:55;;;;;;;1.50;0.30;;;16.10;99.90;;;;;;5014183;28;20050;-95
2022/07/11 06:02:21;;;;;;;1.20;0.20;;;16.10;99.90;;;;;;5012418;28;20048;-95
2022/07/11 06:04:47;;;;;;;1.42;0.20;;;16.10;99.90;;;;;;5011534;28;20046;-94
2022/07/11 06:10:38;;;;;;;0.80;0.30;;;16.50;99.90;;;;;;5013088;28;20064;-95
2022/07/11 06:13:04;;;;;;;1.90;0.30;;;16.40;99.90;;;;;;5013426;28;20054;-95
2022/07/11 06:15:33;;;;;;;1.08;0.20;;;16.50;99.90;;;;;;5015041;28;20046;-96
2022/07/11 06:18:56;;;;;;;;;;;;;;;;;;;;;
2022/07/11 06:21:22;;;;;;;3.45;0.45;;;16.80;99.90;;;;;;4973387;28;20068;-96
2022/07/11 06:27:12;;;;;;;1.25;0.30;;;16.80;99.90;;;;;;5012166;28;20410;-96
2022/07/11 06:30:13;;;;;;;0.82;0.20;;;16.80;99.90;;;;;;4996380;28;20171;-96
2022/07/11 06:33:06;;;;;;;2.83;0.20;;;16.80;99.90;;;;;;5013078;28;20050;-96
2022/07/11 06:35:40;;;;;;;0.52;0.20;;;16.90;99.90;;;;;;5013245;28;20057;-96
2022/07/11 06:38:20;;;;;;;0.90;0.28;;;16.90;99.90;;;;;;5028701;28;20119;-96
2022/07/11 06:40:55;;;;;;;3.55;0.40;;;17.10;99.90;;;;;;5011008;28;20046;-96
2022/07/11 06:43:23;;;;;;;1.25;0.30;;;17.30;99.90;;;;;;5014243;28;20050;-95
2022/07/11 06:46:15;;;;;;;1.08;0.20;;;17.30;99.90;;;;;;5023079;28;20040;-96
2022/07/11 06:48:51;;;;;;;0.90;0.30;;;17.50;99.90;;;;;;5011110;28;20516;-96
2022/07/11 06:51:22;;;;;;;1.65;0.35;;;17.40;99.90;;;;;;5016093;28;20080;-96
2022/07/11 06:54:01;;;;;;;2.85;0.38;;;17.40;99.90;;;;;;5016048;28;20037;-96
2022/07/11 06:56:40;;;;;;;1.88;0.30;;;17.60;99.90;;;;;;5015467;28;20492;-96
2022/07/11 06:59:26;;;;;;;2.20;0.50;;;17.60;99.90;;;;;;5015366;28;20478;-96
2022/07/11 07:01:57;;;;;;;1.80;0.30;;;17.60;99.90;;;;;;5012894;28;20072;-96
2022/07/11 07:04:26;;;;;;;1.08;0.30;;;17.60;99.90;;;;;;5014476;28;20050;-95
2022/07/11 07:07:08;;;;;;;;;;;;;;;;;;;;;
2022/07/11 07:09:39;;;;;;;2.85;0.30;;;17.50;99.90;;;;;;5031539;28;20050;-96
2022/07/11 07:12:07;;;;;;;1.25;0.32;;;17.40;99.90;;;;;;5013254;28;20076;-96
2022/07/11 07:14:42;;;;;;;1.30;0.47;;;17.30;99.90;;;;;;5016455;28;20047;-96
2022/07/11 07:17:10;;;;;;;2.40;0.45;;;17.30;99.90;;;;;;5013993;28;20069;-95
2022/07/11 07:19:43;;;;;;;1.15;0.50;;;17.20;99.90;;;;;;5016124;28;20048;-95
2022/07/11 07:22:09;;;;;;;1.30;0.40;;;17.30;99.90;;;;;;5014198;28;20440;-96
2022/07/11 07:24:43;;;;;;;1.83;0.40;;;17.30;99.90;;;;;;5015969;28;20041;-96
2022/07/11 07:27:47;;;;;;;2.17;0.60;;;17.30;99.90;;;;;;5014008;28;20092;-96
2022/07/11 07:30:14;;;;;;;3.80;0.68;;;17.50;99.90;;;;;;5009856;28;20056;-96
2022/07/11 07:32:40;;;;;;;1.33;0.40;;;17.60;99.90;;;;;;5015143;28;20496;-92
2022/07/11 07:35:06;;;;;;;1.23;0.40;;;17.70;99.90;;;;;;5013562;28;20040;-91
2022/07/11 07:37:32;;;;;;;1.10;0.20;;;17.70;99.90;;;;;;5013349;28;20052;-91
2022/07/11 07:39:58;;;;;;;2.00;0.40;;;17.70;99.90;;;;;;5015557;28;20037;-92
2022/07/11 07:42:32;;;;;;;1.75;0.30;;;17.70;99.90;;;;;;5013348;28;20045;-94
2022/07/11 07:45:01;;;;;;;1.45;0.22;;;17.80;99.90;;;;;;5013784;28;20053;-91
2022/07/11 07:47:28;;;;;;;1.38;0.40;;;17.70;99.90;;;;;;5013267;28;20052;-91
2022/07/11 07:49:54;;;;;;;2.90;0.40;;;17.80;99.90;;;;;;5015393;28;20045;-96
2022/07/11 07:52:22;;;;;;;0.20;0.13;;;17.80;99.90;;;;;;5013940;28;20049;-96
2022/07/11 07:54:52;;;;;;;2.22;0.28;;;17.80;99.90;;;;;;5015033;28;20048;-96
2022/07/11 07:57:18;;;;;;;1.20;0.20;;;17.80;99.90;;;;;;5013993;28;20123;-96
2022/07/11 07:59:44;;;;;;;1.20;0.30;;;17.90;99.90;;;;;;5015978;28;20105;-96
2022/07/11 08:02:10;;;;;;;0.73;0.20;;;18.00;99.90;;;;;;5014051;28;20049;-96
2022/07/11 08:04:36;;;;;;;0.82;0.13;;;18.20;99.90;;;;;;5014307;28;20084;-96
2022/07/11 08:07:11;;;;;;;0.45;0.10;;;18.40;99.90;;;;;;5015340;28;20061;-96
2022/07/11 08:09:40;;;;;;;0.30;0.10;;;18.50;99.90;;;;;;5016721;28;20523;-96
2022/07/11 08:12:09;;;;;;;1.35;0.15;;;18.60;99.90;;;;;;5012930;28;20049;-96
2022/07/11 08:14:39;;;;;;;0.32;0.10;;;18.80;99.90;;;;;;5015334;28;20081;-95
2022/07/11 08:17:08;;;;;;;0.68;0.10;;;18.80;99.90;;;;;;5017103;28;20045;-95
2022/07/11 08:19:34;;;;;;;0.65;0.10;;;18.80;99.90;;;;;;5015099;28;20033;-96
2022/07/11 08:22:00;;;;;;;0.20;0.10;;;18.90;99.90;;;;;;5013649;28;20045;-96
2022/07/11 08:24:25;;;;;;;0.50;0.10;;;19.00;99.90;;;;;;5015337;28;20080;-96
2022/07/11 08:26:54;;;;;;;0.85;0.20;;;19.10;99.90;;;;;;5015550;28;20045;-96
2022/07/11 08:29:22;;;;;;;8.90;0.73;;;19.00;99.90;;;;;;5013207;28;20049;-96
2022/07/11 08:31:48;;;;;;;3.70;0.50;;;18.80;99.90;;;;;;5013849;28;20136;-95
2022/07/11 08:34:14;;;;;;;1.70;0.47;;;18.70;99.90;;;;;;5013108;28;20045;-95
2022/07/11 08:36:40;;;;;;;0.80;0.10;;;18.60;99.90;;;;;;5016797;28;20049;-95
2022/07/11 08:39:08;;;;;;;0.95;0.35;;;18.50;99.90;;;;;;5014932;28;20041;-95
2022/07/11 08:41:42;;;;;;;2.53;0.20;;;18.40;99.90;;;;;;5014081;28;20060;-96
2022/07/11 08:44:11;;;;;;;1.63;0.30;;;18.30;99.90;;;;;;5014172;28;20124;-96
2022/07/11 08:46:40;;;;;;;1.65;0.10;;;18.40;99.90;;;;;;5016755;28;20132;-96
2022/07/11 08:49:06;;;;;;;0.13;0.00;;;18.50;99.90;;;;;;5015533;28;20047;-96
2022/07/11 08:51:37;;;;;;;1.48;0.28;;;18.70;99.90;;;;;;5015067;28;20045;-96
2022/07/11 08:54:05;;;;;;;3.22;0.10;;;18.80;99.90;;;;;;5018266;28;20096;-96
2022/07/11 08:56:32;;;;;;;1.75;0.10;;;18.90;99.90;;;;;;5031402;28;20022;-95
2022/07/11 08:58:59;;;;;;;0.35;0.03;;;19.00;99.90;;;;;;5034776;28;20087;-96
2022/07/11 09:01:29;;;;;;;2.67;0.17;;;18.80;99.90;;;;;;5030925;28;20056;-96
2022/07/11 09:03:56;;;;;;;0.10;0.00;;;19.00;99.90;;;;;;5032986;28;20094;-96
2022/07/11 09:06:21;;;;;;;1.13;0.10;;;18.90;99.90;;;;;;5031479;28;20049;-96
2022/07/11 09:08:47;;;;;;;1.40;0.10;;;18.90;99.90;;;;;;5028567;28;20093;-94
2022/07/11 09:11:16;;;;;;;0.30;0.10;;;18.90;99.90;;;;;;5030402;28;20036;-95
2022/07/11 09:13:42;;;;;;;1.02;0.10;;;18.90;99.90;;;;;;5033343;28;20109;-95
2022/07/11 09:16:09;;;;;;;1.02;0.20;;;18.90;99.90;;;;;;5035107;28;20041;-96
2022/07/11 09:18:40;;;;;;;0.90;0.15;;;18.70;99.90;;;;;;5058834;22;20037;-95
2022/07/11 09:26:52;;;;;;;1.45;0.10;;;19.00;99.90;;;;;;5017432;28;20056;-96
2022/07/11 09:29:27;;;;;;;0.88;0.10;;;19.10;99.90;;;;;;5000151;28;20057;-96
2022/07/11 09:32:03;;;;;;;0.55;0.10;;;18.90;99.90;;;;;;4999663;28;20041;-96
2022/07/11 09:34:31;;;;;;;0.70;0.17;;;18.80;99.90;;;;;;4998856;28;20054;-95
2022/07/11 09:37:02;;;;;;;1.92;0.15;;;18.70;99.90;;;;;;4999892;28;20136;-95
2022/07/11 09:39:29;;;;;;;0.65;0.10;;;18.60;99.90;;;;;;4997728;28;20054;-96
2022/07/11 09:41:56;;;;;;;1.80;0.10;;;18.40;99.90;;;;;;4998780;28;20061;-95
2022/07/11 09:44:34;;;;;;;0.43;0.08;;;18.70;99.90;;;;;;4996433;28;20053;-96
2022/07/11 09:47:19;;;;;;;0.73;0.15;;;18.50;99.90;;;;;;4998421;28;20136;-96
2022/07/11 09:49:59;;;;;;;1.10;0.20;;;18.50;99.90;;;;;;5012745;28;20521;-95
2022/07/11 09:52:28;;;;;;;0.30;0.10;;;18.40;99.90;;;;;;4996315;28;20049;-95
2022/07/11 09:55:01;;;;;;;3.83;0.40;;;18.40;99.90;;;;;;4996529;28;20046;-96
2022/07/11 09:57:33;;;;;;;;;;;18.50;99.90;;;;;;4999348;28;20133;-96
2022/07/11 10:00:05;;;;;;;1.23;0.17;;;18.60;99.90;;;;;;4999799;28;19921;-95
2022/07/11 10:02:41;;;;;;;0.43;0.10;;;18.70;99.90;;;;;;4997630;28;20045;-95
2022/07/11 10:05:13;;;;;;;1.15;0.10;;;18.70;99.90;;;;;;4994107;28;20050;-95
2022/07/11 10:07:41;;;;;;;1.33;0.20;;;18.70;99.90;;;;;;4988190;28;20053;-95
2022/07/11 10:10:10;;;;;;;2.40;0.20;;;18.80;99.90;;;;;;4990292;28;20042;-96
2022/07/11 10:13:15;;;;;;;0.15;0.08;;;18.70;99.90;;;;;;4985278;28;20481;-96
2022/07/11 10:16:02;;;;;;;1.58;0.20;;;18.80;99.90;;;;;;4985548;28;20050;-95
2022/07/11 10:18:38;;;;;;;0.82;0.20;;;18.70;99.90;;;;;;4992765;28;20050;-95
2022/07/11 10:21:11;;;;;;;3.30;0.30;;;18.70;99.90;;;;;;4989604;28;20046;-96
2022/07/11 10:23:52;;;;;;;2.88;0.32;;;18.60;99.90;;;;;;4995550;28;20057;-96
2022/07/11 10:26:45;;;;;;;0.85;0.20;;;18.60;99.90;;;;;;4986184;28;20513;-95
2022/07/11 10:29:22;;;;;;;0.93;0.20;;;18.70;99.90;;;;;;4981471;28;20043;-96
2022/07/11 10:32:07;;;;;;;0.93;0.10;;;18.80;99.90;;;;;;5025911;23;20045;-96
2022/07/11 10:34:33;;;;;;;1.98;0.30;;;18.90;99.90;;;;;;5035852;28;20037;-96
2022/07/11 10:37:01;;;;;;;1.65;0.28;;;18.90;99.90;;;;;;5036814;28;20040;-96
2022/07/11 10:39:28;;;;;;;0.75;0.20;;;18.90;99.90;;;;;;5035148;28;20128;-96
2022/07/11 10:41:55;;;;;;;12.52;1.85;;;19.10;99.90;;;;;;5036085;28;20097;-96
2022/07/11 10:44:21;;;;;;;1.25;0.30;;;19.20;99.90;;;;;;5036342;28;20366;-96
2022/07/11 10:46:47;;;;;;;0.30;0.10;;;19.20;99.90;;;;;;5039229;28;20413;-96
2022/07/11 10:49:13;;;;;;;0.73;0.20;;;19.30;99.90;;;;;;5035708;28;20041;-96
2022/07/11 10:52:05;;;;;;;1.95;0.30;;;19.40;99.90;;;;;;5038214;28;20319;-96
2022/07/11 10:54:48;;;;;;;4.47;0.55;;;19.40;99.90;;;;;;5035975;28;20412;-96
2022/07/11 10:57:17;;;;;;;;;;;19.20;99.90;;;;;;5040954;28;20071;-96
2022/07/11 10:59:59;;;;;;;3.22;0.30;;;19.00;99.90;;;;;;5043728;28;19924;-96
2022/07/11 11:02:26;;;;;;;1.58;0.40;;;18.90;99.90;;;;;;5043332;28;20049;-96
2022/07/11 11:04:59;;;;;;;1.20;0.30;;;18.90;99.90;;;;;;5043004;28;20531;-96
2022/07/11 11:07:29;;;;;;;2.30;0.20;;;18.90;99.90;;;;;;5042550;28;20041;-96
2022/07/11 11:09:59;;;;;;;0.98;0.20;;;19.10;99.90;;;;;;5038328;28;20053;-96
2022/07/11 11:13:24;;;;;;;1.58;0.28;;;19.20;99.90;;;;;;5042651;28;20060;-96
2022/07/11 11:15:54;;;;;;;2.33;0.35;;;19.40;99.90;;;;;;5032640;28;20084;-96
2022/07/11 11:18:31;;;;;;;1.02;0.10;;;19.40;99.90;;;;;;5056389;28;20533;-96
2022/07/11 11:21:24;;;;;;;0.57;0.30;;;19.50;99.90;;;;;;5037136;28;20057;-96
2022/07/11 11:23:59;;;;;;;1.20;0.15;;;19.60;99.90;;;;;;5022737;28;20045;-96
2022/07/11 11:26:50;;;;;;;1.85;0.30;;;19.70;99.90;;;;;;5021601;28;20087;-96
2022/07/11 11:29:29;;;;;;;0.65;0.20;;;19.70;99.90;;;;;;5023385;28;20046;-96
2022/07/11 11:31:58;;;;;;;1.58;0.20;;;19.60;99.90;;;;;;5042709;23;20056;-94
2022/07/11 11:34:24;;;;;;;5.85;0.32;;;19.60;99.90;;;;;;5012330;28;20076;-93
2022/07/11 11:36:56;;;;;;;1.55;0.15;;;19.70;99.90;;;;;;5011356;28;20044;-92
2022/07/11 11:39:24;;;;;;;0.80;0.10;;;19.80;99.90;;;;;;5028414;28;20053;-93
2022/07/11 11:41:50;;;;;;;0.50;0.10;;;19.90;99.90;;;;;;5029048;28;20057;-94
2022/07/11 11:44:16;;;;;;;0.35;0.05;;;20.00;99.90;;;;;;5011602;28;20046;-93
2022/07/11 11:46:41;;;;;;;0.22;0.20;;;20.00;99.90;;;;;;5028033;28;20080;-93
2022/07/11 11:49:07;;;;;;;1.00;0.20;;;19.90;99.90;;;;;;5011427;28;20052;-93
2022/07/11 11:51:33;;;;;;;0.95;0.13;;;19.80;99.90;;;;;;5011965;28;20057;-92
2022/07/11 11:54:02;;;;;;;1.38;0.15;;;19.60;99.90;;;;;;5013359;28;20092;-92
2022/07/11 11:56:32;;;;;;;3.58;0.30;;;19.70;99.90;;;;;;5017974;28;20052;-94
2022/07/11 11:59:01;;;;;;;1.38;0.10;;;19.70;99.90;;;;;;5029172;28;20092;-93
2022/07/11 12:01:29;;;;;;;0.93;0.20;;;19.80;99.90;;;;;;5011617;28;20080;-92
2022/07/11 12:03:57;;;;;;;2.03;0.20;;;19.80;99.90;;;;;;5012108;28;20041;-93
2022/07/11 12:06:26;;;;;;;1.85;0.40;;;19.80;99.90;;;;;;5027460;28;20495;-93
2022/07/11 12:09:12;;;;;;;2.63;0.20;;;19.90;99.90;;;;;;5008888;28;20042;-93
2022/07/11 12:11:40;;;;;;;2.85;0.20;;;19.80;99.90;;;;;;5008168;28;20046;-94
2022/07/11 12:14:08;;;;;;;1.75;0.20;;;19.70;99.90;;;;;;5009054;28;20042;-93
2022/07/11 12:16:39;;;;;;;0.68;0.20;;;19.50;99.90;;;;;;5008947;28;20091;-92
2022/07/11 12:19:07;;;;;;;6.50;0.20;;;19.70;99.90;;;;;;5008724;28;20129;-91
2022/07/11 12:21:33;;;;;;;5.95;0.30;;;19.60;99.90;;;;;;5007899;28;20046;-93
2022/07/11 12:24:01;;;;;;;2.40;0.30;;;19.50;99.90;;;;;;5009113;28;20077;-94
2022/07/11 12:26:30;;;;;;;2.85;0.25;;;19.40;99.90;;;;;;5008284;28;20393;-92
2022/07/11 12:29:03;;;;;;;2.53;0.65;;;19.40;99.90;;;;;;5009136;28;20592;-94
2022/07/11 12:31:43;;;;;;;3.67;0.55;;;19.40;99.90;;;;;;4991330;28;20161;-93
2022/07/11 12:34:08;;;;;;;1.98;0.30;;;19.50;99.90;;;;;;5008066;28;20050;-92
2022/07/11 12:36:34;;;;;;;1.92;0.22;;;19.60;99.90;;;;;;5007805;28;20501;-93
2022/07/11 12:39:00;;;;;;;3.63;0.30;;;19.60;99.90;;;;;;4991970;28;20457;-93
2022/07/11 12:41:26;;;;;;;2.20;0.30;;;19.70;99.90;;;;;;5007662;28;20049;-93
2022/07/11 12:46:38;;;;;;;2.65;0.22;;;19.60;99.90;;;;;;5027595;28;20457;-93
2022/07/11 12:49:07;;;;;;;1.13;0.30;;;19.60;99.90;;;;;;5011351;28;20099;-93
2022/07/11 12:51:37;;;;;;;1.15;0.20;;;19.60;99.90;;;;;;5027132;28;20080;-94
2022/07/11 12:54:05;;;;;;;3.15;0.20;;;19.60;99.90;;;;;;5011223;28;20046;-92
2022/07/11 12:56:31;;;;;;;0.98;0.20;;;19.70;99.90;;;;;;5011288;28;20444;-93
2022/07/11 12:58:59;;;;;;;3.38;0.20;;;19.80;99.90;;;;;;5011488;28;20045;-93
2022/07/11 13:01:25;;;;;;;0.45;0.10;;;19.90;99.90;;;;;;5014775;28;20412;-94
2022/07/11 13:03:51;;;;;;;0.68;0.10;;;20.10;99.90;;;;;;5015542;28;20178;-93
2022/07/11 13:06:16;;;;;;;2.03;0.30;;;20.10;99.90;;;;;;5030762;28;20053;-93
2022/07/11 13:08:49;;;;;;;0.77;0.00;;;20.20;99.90;;;;;;5014982;28;20060;-93
2022/07/11 13:11:16;;;;;;;0.60;0.10;;;20.10;99.90;;;;;;5031149;28;20049;-94
2022/07/11 13:13:42;;;;;;;0.10;0.00;;;20.00;99.90;;;;;;5014340;28;20049;-93
2022/07/11 13:16:10;;;;;;;0.63;0.30;;;20.00;99.90;;;;;;5014526;28;20103;-93
2022/07/11 13:18:36;;;;;;;2.13;0.15;;;19.90;99.90;;;;;;5016216;28;20056;-93